Impacts TAF Board
For situational awareness. Not to be used for flight planning purposes.
IDs:

KDCA - Washington/National, VA, US

Issued at 1129 UTC 20 Oct 2021
Updated at 1327 UTC 20 Oct 2021
Potential Impact None Slight Moderate High
Time1252Z 20/14Z 20/15Z 20/16Z 20/17Z 20/18Z 20/19Z 20/20Z 20/21Z 20/22Z 20/23Z 21/00Z 21/01Z 21/02Z>>
Type OBS PRVL PRVL PRVL PRVL PRVL PRVL PRVL PRVL PRVL PRVL PRVL PRVL PRVL
VIS 10 >6 >6 >6 >6 >6 >6 >6 >6 >6 >6 >6 >6 >6
CIG -- -- -- -- -- -- -- -- -- -- -- -- -- --
Cover FEW SCT SCT FEW FEW FEW FEW FEW FEW FEW FEW FEW FEW FEW
FltCat VFR VFR VFR VFR VFR VFR VFR VFR VFR VFR VFR VFR VFR VFR
WX -- -- -- -- -- -- -- -- -- -- -- -- -- --
WDir 200 230 230 270 270 270 270 270 270 270 220 220 190 190
WSpd 5 5 5 9 9 9 9 9 9 9 4 4 4 4
WGst -- -- -- 16 16 16 16 16 16 16 -- -- -- --
Raw TAF
KDCA 201129Z 2012/2118 23005KT P6SM FEW150 SCT250
  FM201600 27009G16KT P6SM FEW250
  FM202300 22004KT P6SM FEW250
  FM210100 19004KT P6SM FEW250


Raw METAR
KDCA 201252Z 20005KT 10SM FEW250 15/09 A3018 RMK AO2 SLP219 T01500089
KDCA 201152Z 21006KT 10SM BKN150 BKN250 13/08 A3016 RMK AO2 SLP213 T01280083 10167 20117 51012
KDCA 201052Z 23004KT 10SM BKN150 OVC250 12/07 A3016 RMK AO2 SLP212 T01220072

METAR Board
Radar Display
Forecast Discussion
For situational awareness. Not to be used for flight planning purposes.